Time;durP1;ratioP1;P1;durP2;ratioP2;P2;SDS_P1;SDS_P2;PMS_P1;PMS_P2;Temp;Humidity;BMP_temperature;BMP_pressure;BME280_temperature;BME280_humidity;BME280_pressure;Samples;Min_cycle;Max_cycle;Signal;HPM_P1;HPM_P2
2021/01/06 00:00:12;;;;;;;24.87;15.70;;;;;;;2.40;78.66;99770.19;2191494;80;28622;-65
2021/01/06 00:03:23;;;;;;;23.35;13.62;;;;;;;2.44;78.54;99764.39;2111957;83;27773;-64
2021/01/06 00:06:29;;;;;;;20.68;13.28;;;;;;;2.49;78.60;99768.23;2117367;82;29438;-64
2021/01/06 00:09:32;;;;;;;19.50;12.60;;;;;;;2.52;78.50;99763.73;2132951;81;31102;-61
2021/01/06 00:12:35;;;;;;;23.27;12.82;;;;;;;2.54;78.47;99764.56;2122573;82;34040;-62
2021/01/06 00:15:37;;;;;;;22.70;12.68;;;;;;;2.57;78.49;99764.50;2159834;81;29746;-62
2021/01/06 00:18:40;;;;;;;21.05;13.65;;;;;;;2.55;78.32;99771.59;2073460;82;27741;-62
2021/01/06 00:21:43;;;;;;;19.23;11.70;;;;;;;2.53;78.17;99767.27;2161685;79;28833;-64
2021/01/06 00:24:45;;;;;;;19.82;12.85;;;;;;;2.52;78.23;99770.81;2152506;79;30738;-62
2021/01/06 00:27:48;;;;;;;22.02;13.35;;;;;;;2.51;78.29;99773.04;2177409;79;33215;-61
2021/01/06 00:30:57;;;;;;;24.35;14.25;;;;;;;2.51;78.40;99777.86;2201672;78;28904;-61
2021/01/06 00:34:00;;;;;;;19.95;13.03;;;;;;;2.52;78.46;99778.27;2164940;81;27728;-61
2021/01/06 00:37:03;;;;;;;23.92;13.80;;;;;;;2.55;78.46;99776.03;2184274;79;28809;-61
2021/01/06 00:40:07;;;;;;;23.07;12.88;;;;;;;2.58;78.35;99773.28;2199215;78;31313;-61
2021/01/06 00:43:11;;;;;;;22.87;14.13;;;;;;;2.60;78.29;99769.30;2129771;80;33221;-62
2021/01/06 00:46:14;;;;;;;32.17;18.48;;;;;;;2.64;78.42;99770.96;2189271;78;28350;-61
2021/01/06 00:49:17;;;;;;;30.45;19.70;;;;;;;2.68;78.43;99773.92;2167829;78;27602;-61
2021/01/06 00:52:22;;;;;;;27.82;18.02;;;;;;;2.71;78.33;99781.78;2178474;79;28836;-62
2021/01/06 00:55:25;;;;;;;25.23;16.70;;;;;;;2.72;78.31;99787.05;2146841;80;30957;-62
2021/01/06 00:58:27;;;;;;;25.68;17.85;;;;;;;2.73;78.24;99783.94;2189712;80;33110;-62
2021/01/06 01:01:30;;;;;;;23.40;17.32;;;;;;;2.72;78.17;99783.52;2179911;79;28868;-62
2021/01/06 01:04:32;;;;;;;23.70;15.72;;;;;;;;;;2158380;80;27649;-62
2021/01/06 01:07:35;;;;;;;18.05;13.62;;;;;;;2.71;78.22;99789.28;2217042;79;31005;-61
2021/01/06 01:10:50;;;;;;;19.32;13.95;;;;;;;2.72;78.20;99787.48;2152727;81;31332;-62
2021/01/06 01:13:53;;;;;;;19.02;13.83;;;;;;;2.75;78.17;99788.73;2187854;80;32962;-62
2021/01/06 01:16:56;;;;;;;20.72;15.63;;;;;;;2.78;78.23;99792.63;2148290;81;28621;-62
2021/01/06 01:19:58;;;;;;;20.45;13.58;;;;;;;2.81;78.24;99798.28;2161220;77;27755;-62
2021/01/06 01:23:01;;;;;;;19.02;13.28;;;;;;;2.82;78.20;99799.55;2106341;80;28667;-63
2021/01/06 01:26:04;;;;;;;21.10;15.50;;;;;;;2.81;77.98;99795.20;2217960;80;31150;-62
2021/01/06 01:29:07;;;;;;;19.60;13.43;;;;;;;2.81;78.18;99795.20;2137950;80;33072;-62
2021/01/06 01:32:09;;;;;;;21.20;13.93;;;;;;;2.82;78.16;99790.30;2198210;77;28865;-62
2021/01/06 01:35:15;;;;;;;16.62;11.35;;;;;;;2.81;78.05;99798.28;2144090;81;27594;-61
2021/01/06 01:38:22;;;;;;;14.47;9.33;;;;;;;2.80;78.05;99793.90;2175431;80;28859;-62
2021/01/06 01:41:26;;;;;;;11.73;8.23;;;;;;;2.79;77.98;99790.84;2171218;79;30938;-62
2021/01/06 01:44:29;;;;;;;12.25;8.20;;;;;;;2.77;78.05;99792.21;2123818;79;32919;-63
2021/01/06 01:47:37;;;;;;;13.28;8.43;;;;;;;2.79;78.09;99794.37;2175296;79;28996;-61
2021/01/06 01:50:52;;;;;;;14.53;8.87;;;;;;;2.86;77.97;99782.70;2243344;79;27771;-63
2021/01/06 01:54:03;;;;;;;;;;;;;;;2.82;78.03;99783.68;2201593;80;27644;-62
2021/01/06 01:57:23;;;;;;;13.03;8.63;;;;;;;2.84;77.82;99775.25;2151063;81;29562;-63
2021/01/06 02:04:16;;;;;;;13.53;9.57;;;;;;;2.91;78.02;99764.52;2248550;78;27704;-63
2021/01/06 02:07:26;;;;;;;15.03;9.43;;;;;;;2.82;77.73;99763.84;2170484;79;27745;-62
2021/01/06 02:10:38;;;;;;;15.32;10.80;;;;;;;2.80;77.85;99767.01;2226842;79;28948;-62
2021/01/06 02:13:42;;;;;;;15.30;9.80;;;;;;;2.75;77.68;99768.90;2195824;79;31158;-62
2021/01/06 02:17:13;;;;;;;12.80;8.23;;;;;;;2.72;77.91;99769.86;2195501;79;33978;-62
2021/01/06 02:20:21;;;;;;;17.37;9.80;;;;;;;2.74;77.97;99769.33;2186843;80;28616;-63
2021/01/06 02:23:39;;;;;;;16.97;9.87;;;;;;;2.84;78.11;99763.35;2286731;77;27496;-62
2021/01/06 02:26:53;;;;;;;20.12;11.73;;;;;;;2.84;78.08;99764.67;2228499;78;27735;-62
2021/01/06 02:30:04;;;;;;;19.27;11.05;;;;;;;2.89;78.17;99769.87;2146668;78;28785;-63
2021/01/06 02:36:38;;;;;;;16.20;10.33;;;;;;;2.99;78.04;99759.88;2306403;75;28137;-63
2021/01/06 02:39:41;;;;;;;18.05;11.20;;;;;;;2.95;78.10;99759.09;2285463;75;27618;-63
2021/01/06 02:42:44;;;;;;;17.20;11.28;;;;;;;2.96;78.01;99756.02;2223353;80;29798;-63
2021/01/06 02:59:44;;;;;;;16.00;12.00;;;;;;;2.96;78.10;99746.75;2210702;78;27633;-62
2021/01/06 03:02:49;;;;;;;15.40;11.60;;;;;;;2.93;78.09;99752.98;2163514;80;27754;-62
2021/01/06 03:06:22;;;;;;;16.65;12.40;;;;;;;2.96;78.03;99752.05;2058381;83;28593;-62
2021/01/06 03:09:35;;;;;;;15.98;11.97;;;;;;;2.99;78.13;99755.91;2112033;83;30376;-62
2021/01/06 03:12:37;;;;;;;15.95;11.45;;;;;;;3.03;78.11;99765.50;2081329;83;32696;-62
2021/01/06 03:15:39;;;;;;;20.60;12.23;;;;;;;3.04;78.07;99756.22;2101529;83;28553;-62
2021/01/06 03:18:43;;;;;;;18.02;12.03;;;;;;;3.03;77.98;99754.92;2064514;84;27654;-62
2021/01/06 03:21:46;;;;;;;18.55;11.20;;;;;;;3.04;78.03;99758.87;2088368;83;28606;-63
2021/01/06 03:25:03;;;;;;;19.55;11.85;;;;;;;3.02;77.95;99759.36;2109101;83;32085;-62
2021/01/06 03:28:05;;;;;;;14.00;9.15;;;;;;;3.02;78.02;99759.36;2060721;84;33950;-62
2021/01/06 03:31:13;;;;;;;14.63;10.08;;;;;;;3.01;77.95;99744.39;2075870;83;29614;-62
2021/01/06 03:34:25;;;;;;;14.80;10.18;;;;;;;3.04;77.98;99749.60;2095682;84;27633;-62
2021/01/06 03:37:33;;;;;;;14.90;10.38;;;;;;;3.07;77.97;99739.81;2068907;83;29705;-63
2021/01/06 03:40:38;;;;;;;17.48;10.50;;;;;;;3.10;78.05;99742.38;2052549;84;30987;-64
2021/01/06 03:44:03;;;;;;;18.33;10.43;;;;;;;3.16;78.00;99749.69;2214520;79;27714;-63
2021/01/06 03:50:51;;;;;;;21.27;10.70;;;;;;;3.13;78.00;99753.78;2030263;87;28668;-63
2021/01/06 03:54:41;;;;;;;16.27;10.50;;;;;;;3.17;77.81;99749.25;2343097;76;27613;-63
2021/01/06 03:57:44;;;;;;;15.18;10.10;;;;;;;3.09;77.64;99748.15;2244779;77;27684;-63
2021/01/06 04:01:16;;;;;;;16.10;10.15;;;;;;;3.02;77.67;99750.09;2230522;78;28633;-63
2021/01/06 04:04:39;;;;;;;15.32;9.43;;;;;;;2.99;77.68;99742.23;2171399;80;31910;-63
2021/01/06 04:08:03;;;;;;;12.18;8.65;;;;;;;2.99;77.70;99755.91;2168198;80;32847;-63
2021/01/06 04:11:07;;;;;;;14.18;9.23;;;;;;;2.98;77.73;99754.20;2072808;84;29338;-63
2021/01/06 04:14:10;;;;;;;11.77;8.67;;;;;;;3.00;77.88;99755.88;1989850;87;27945;-63
2021/01/06 04:17:32;;;;;;;12.85;9.13;;;;;;;3.03;77.99;99751.84;2010060;86;29974;-64
2021/01/06 04:20:37;;;;;;;10.82;8.20;;;;;;;3.06;77.96;99756.16;2039137;86;30968;-63
2021/01/06 04:23:40;;;;;;;12.58;9.23;;;;;;;3.07;77.92;99756.58;2018655;86;33516;-63
2021/01/06 04:26:42;;;;;;;12.58;8.95;;;;;;;3.07;77.94;99748.64;2040054;86;29814;-63
2021/01/06 04:29:44;;;;;;;10.58;8.03;;;;;;;3.06;77.58;99753.52;2059868;84;27811;-63
2021/01/06 04:32:47;;;;;;;13.72;8.90;;;;;;;3.01;77.57;99754.09;2097580;84;28838;-63
2021/01/06 04:35:50;;;;;;;14.93;8.08;;;;;;;2.97;77.59;99756.43;2074286;84;31762;-63
2021/01/06 04:38:56;;;;;;;11.83;8.55;;;;;;;2.94;77.58;99760.00;2028859;85;33131;-64
2021/01/06 04:42:04;;;;;;;11.80;7.40;;;;;;;2.94;77.67;99764.45;2053309;84;29115;-64
2021/01/06 04:45:14;;;;;;;13.68;8.83;;;;;;;2.94;77.52;99762.66;2085406;84;27704;-63
2021/01/06 04:48:27;;;;;;;11.28;8.10;;;;;;;2.93;77.43;99767.53;2112916;84;28924;-64
2021/01/06 04:51:56;;;;;;;11.83;8.55;;;;;;;2.91;77.36;99764.52;2108782;84;31288;-63
2021/01/06 04:55:34;;;;;;;10.72;7.78;;;;;;;2.91;77.48;99763.20;2085676;84;32924;-64
2021/01/06 04:59:02;;;;;;;11.50;7.60;;;;;;;2.87;77.43;99771.21;2085540;84;29585;-64
2021/01/06 05:02:25;;;;;;;10.00;6.72;;;;;;;2.86;77.46;99761.53;2085683;84;27666;-63
2021/01/06 05:05:38;;;;;;;9.45;6.92;;;;;;;2.86;77.29;99762.00;2113127;84;28889;-62
2021/01/06 05:08:48;;;;;;;13.03;8.43;;;;;;;2.81;77.42;99763.89;2102456;84;31924;-64
2021/01/06 05:11:56;;;;;;;15.60;8.10;;;;;;;2.80;77.51;99770.09;2054720;85;33044;-62
2021/01/06 05:15:15;;;;;;;15.32;8.68;;;;;;;2.78;77.60;99774.11;2032433;85;28639;-62
2021/01/06 05:18:18;;;;;;;19.62;10.68;;;;;;;2.79;77.69;99777.17;2029087;85;27725;-63
2021/01/06 05:21:23;;;;;;;18.95;10.43;;;;;;;2.79;77.75;99781.14;1997155;85;29340;-63
2021/01/06 05:24:36;;;;;;;19.70;11.38;;;;;;;2.82;77.76;99785.00;2043959;85;32186;-63
2021/01/06 05:27:40;;;;;;;16.87;10.35;;;;;;;2.87;77.80;99778.30;2066288;85;33388;-62
2021/01/06 05:30:44;;;;;;;13.88;8.83;;;;;;;2.90;77.76;99780.83;2065433;85;29815;-63
2021/01/06 05:33:50;;;;;;;11.83;8.83;;;;;;;2.95;77.84;99772.33;2032235;85;27756;-62
2021/01/06 05:36:52;;;;;;;13.03;9.03;;;;;;;2.98;77.85;99772.72;2057570;85;28720;-63
2021/01/06 05:40:00;;;;;;;11.20;8.30;;;;;;;3.00;77.83;99771.77;2043977;85;31208;-63
2021/01/06 05:43:10;;;;;;;13.50;9.08;;;;;;;3.02;77.77;99772.59;2065084;85;33848;-62
2021/01/06 05:46:29;;;;;;;14.83;10.23;;;;;;;3.02;77.81;99775.23;2043633;85;28872;-63
2021/01/06 05:49:32;;;;;;;15.60;9.33;;;;;;;3.02;77.78;99779.64;2075745;85;27623;-64
2021/01/06 05:52:34;;;;;;;19.87;9.63;;;;;;;3.02;77.78;99775.67;2006506;85;28172;-64
2021/01/06 05:55:37;;;;;;;24.20;11.40;;;;;;;3.02;77.77;99769.94;2054053;85;32091;-62
2021/01/06 05:58:44;;;;;;;18.55;11.00;;;;;;;3.02;77.71;99764.66;2062639;85;33916;-62
2021/01/06 06:02:06;;;;;;;16.32;10.45;;;;;;;3.08;77.69;99774.20;2087436;84;29303;-63
2021/01/06 06:05:39;;;;;;;16.40;10.45;;;;;;;3.10;77.74;99783.41;1975684;88;27859;-62
2021/01/06 06:09:13;;;;;;;17.60;10.93;;;;;;;3.11;77.74;99779.84;1982035;85;28860;-63
2021/01/06 06:12:40;;;;;;;17.37;10.93;;;;;;;3.11;77.65;99787.35;1983566;89;31159;-63
2021/01/06 06:16:38;;;;;;;20.50;12.65;;;;;;;3.08;77.47;99787.87;1986329;89;33169;-63
2021/01/06 06:20:10;;;;;;;22.10;13.08;;;;;;;3.06;77.55;99782.63;1996085;87;28515;-64
2021/01/06 06:23:33;;;;;;;19.27;12.05;;;;;;;3.02;77.49;99784.94;2020121;87;27749;-63
2021/01/06 06:26:43;;;;;;;17.35;12.03;;;;;;;2.97;77.57;99785.53;2000997;87;28846;-63
2021/01/06 06:30:12;;;;;;;21.10;13.05;;;;;;;2.93;77.56;99778.58;1998044;88;32542;-64
2021/01/06 06:33:19;;;;;;;21.73;13.68;;;;;;;2.88;77.24;99782.21;2010206;86;32925;-63
2021/01/06 06:36:25;;;;;;;23.50;14.30;;;;;;;2.89;77.49;99785.27;2012316;87;29654;-63
2021/01/06 06:39:36;;;;;;;25.17;14.78;;;;;;;2.94;77.68;99779.00;2013654;87;27775;-63
2021/01/06 06:43:01;;;;;;;20.10;12.63;;;;;;;2.96;77.58;99772.75;2052689;84;28905;-63
2021/01/06 06:46:33;;;;;;;23.43;14.37;;;;;;;2.99;77.65;99781.05;2074032;84;31446;-63
2021/01/06 06:49:50;;;;;;;23.18;13.83;;;;;;;2.99;77.57;99784.58;2093340;84;33184;-63
2021/01/06 06:53:35;;;;;;;22.07;14.03;;;;;;;2.99;77.62;99787.22;2059470;84;28639;-63
2021/01/06 06:56:54;;;;;;;14.95;10.82;;;;;;;2.98;77.53;99793.42;2051559;84;27705;-63
2021/01/06 07:00:20;;;;;;;23.70;14.80;;;;;;;2.95;77.45;99798.78;2037398;85;30552;-63
2021/01/06 07:03:25;;;;;;;23.95;13.83;;;;;;;2.92;77.48;99806.80;2071744;84;31244;-63
2021/01/06 07:06:29;;;;;;;22.25;13.48;;;;;;;2.90;77.51;99812.58;2065857;84;32882;-63
2021/01/06 07:09:38;;;;;;;23.65;13.95;;;;;;;2.89;77.51;99813.05;2081719;83;28673;-63
2021/01/06 07:12:42;;;;;;;25.85;15.98;;;;;;;2.89;77.28;99817.02;2101985;82;27659;-63
2021/01/06 07:15:57;;;;;;;26.75;16.17;;;;;;;2.88;77.41;99811.78;2125358;82;28851;-63
2021/01/06 07:19:16;;;;;;;32.15;16.85;;;;;;;2.89;77.33;99818.34;2150441;81;31255;-63
2021/01/06 07:22:33;;;;;;;25.70;15.65;;;;;;;2.90;77.30;99820.52;2149219;81;33754;-62
2021/01/06 07:25:36;;;;;;;35.60;16.97;;;;;;;2.87;76.97;99820.63;2158286;81;28858;-63
2021/01/06 07:28:39;;;;;;;29.25;16.48;;;;;;;2.87;77.37;99821.47;2109532;82;27672;-63
2021/01/06 07:32:06;;;;;;;29.92;16.50;;;;;;;2.91;77.53;99822.72;2131142;82;28237;-63
2021/01/06 07:35:13;;;;;;;30.27;17.35;;;;;;;2.96;77.60;99823.48;2113536;81;32170;-62
2021/01/06 07:38:17;;;;;;;32.40;17.17;;;;;;;3.01;77.57;99825.53;2140164;82;34044;-62
2021/01/06 07:41:21;;;;;;;29.65;15.63;;;;;;;3.09;77.57;99819.59;2119538;82;28861;-63
2021/01/06 07:44:31;;;;;;;27.32;15.63;;;;;;;3.17;77.40;99815.42;2053679;83;27648;-63
2021/01/06 07:47:35;;;;;;;30.20;16.77;;;;;;;3.27;77.30;99808.10;2046893;81;29356;-64
2021/01/06 07:50:37;;;;;;;28.62;16.45;;;;;;;3.39;77.42;99802.45;2072810;83;31276;-63
2021/01/06 07:54:02;;;;;;;30.00;17.12;;;;;;;3.53;77.25;99802.52;2125402;82;33204;-63
2021/01/06 07:57:22;;;;;;;29.25;16.20;;;;;;;3.62;77.09;99800.95;2123579;82;29552;-63
2021/01/06 08:00:33;;;;;;;29.95;17.57;;;;;;;3.75;77.10;99802.31;2168547;81;27692;-63
2021/01/06 08:03:47;;;;;;;37.40;18.77;;;;;;;3.83;76.44;99796.78;2148839;81;28780;-63
2021/01/06 08:06:56;;;;;;;34.08;20.00;;;;;;;3.88;76.44;99804.59;2181735;81;31428;-63
2021/01/06 08:09:58;;;;;;;29.35;17.25;;;;;;;3.90;76.58;99802.30;2135357;82;33182;-63
2021/01/06 08:13:24;;;;;;;33.15;18.57;;;;;;;3.88;76.34;99809.45;2073935;84;29489;-63
2021/01/06 08:16:47;;;;;;;30.92;18.55;;;;;;;3.78;75.83;99804.88;2104416;84;27706;-64
2021/01/06 08:19:58;;;;;;;29.98;15.75;;;;;;;3.78;76.06;99808.85;2119761;82;28855;-63
2021/01/06 08:23:20;;;;;;;35.05;19.00;;;;;;;3.75;75.69;99809.38;2166749;82;31842;-63
2021/01/06 08:26:26;;;;;;;43.58;22.22;;;;;;;3.73;76.09;99811.20;2082913;84;32775;-62
2021/01/06 08:29:33;;;;;;;47.38;23.02;;;;;;;3.81;76.32;99807.88;2040565;86;28680;-62
2021/01/06 08:32:48;;;;;;;48.37;25.80;;;;;;;3.88;76.23;99811.22;2226054;77;28132;-63
2021/01/06 08:35:51;;;;;;;42.67;24.35;;;;;;;3.84;76.09;99805.59;2149696;81;27759;-63
2021/01/06 08:39:17;;;;;;;40.90;22.93;;;;;;;3.90;76.25;99802.30;2149176;81;28836;-64
2021/01/06 08:42:25;;;;;;;38.20;23.40;;;;;;;3.92;76.12;99805.77;2179543;80;31931;-63
2021/01/06 08:45:34;;;;;;;45.92;22.45;;;;;;;3.96;76.37;99803.92;2140688;80;34493;-63
2021/01/06 08:48:38;;;;;;;33.80;20.27;;;;;;;4.00;75.98;99802.88;2125889;81;28544;-63
2021/01/06 08:51:44;;;;;;;24.93;15.53;;;;;;;4.00;75.65;99802.03;2179915;80;27648;-63
2021/01/06 08:54:58;;;;;;;36.28;20.62;;;;;;;3.92;75.87;99802.27;2148582;81;28839;-63
2021/01/06 08:58:03;;;;;;;;;;;;;;;3.92;75.85;99798.29;2153834;80;31148;-63
2021/01/06 09:01:09;;;;;;;34.85;20.35;;;;;;;4.00;76.19;99797.58;2177283;80;33065;-64
2021/01/06 09:04:16;;;;;;;32.65;20.57;;;;;;;4.08;76.21;99793.37;2170114;81;29534;-62
2021/01/06 09:07:24;;;;;;;33.42;21.37;;;;;;;4.14;76.27;99797.16;2208967;80;27690;-63
2021/01/06 09:10:34;;;;;;;36.55;20.20;;;;;;;4.24;76.43;99803.90;2152633;80;28891;-64
2021/01/06 09:13:48;;;;;;;32.58;17.77;;;;;;;4.29;76.16;99802.89;2183825;80;31163;-63
2021/01/06 09:16:58;;;;;;;36.38;19.42;;;;;;;4.32;75.69;99807.63;2156499;80;34240;-64
2021/01/06 09:20:17;;;;;;;32.58;19.50;;;;;;;4.30;75.87;99810.83;2199171;80;29067;-63
2021/01/06 09:23:20;;;;;;;30.62;19.35;;;;;;;4.31;75.57;99811.20;2149432;81;27728;-64
2021/01/06 09:26:25;;;;;;;33.18;18.95;;;;;;;4.32;75.81;99807.63;2150021;80;29418;-64
2021/01/06 09:29:29;;;;;;;35.15;18.98;;;;;;;4.38;75.94;99804.80;2162252;80;30726;-63
2021/01/06 09:32:38;;;;;;;40.20;18.62;;;;;;;4.44;75.96;99802.41;2147067;81;33811;-64
2021/01/06 09:35:40;;;;;;;33.33;18.07;;;;;;;4.48;75.96;99802.72;2197225;80;28901;-63
2021/01/06 09:38:46;;;;;;;36.53;22.55;;;;;;;4.53;75.62;99797.26;2172045;80;28270;-63
2021/01/06 09:41:50;;;;;;;34.60;21.33;;;;;;;4.59;75.63;99796.18;2207021;80;28826;-64
2021/01/06 09:44:52;;;;;;;36.15;20.05;;;;;;;4.64;75.55;99792.92;2197050;80;31152;-64
2021/01/06 09:48:00;;;;;;;31.50;19.27;;;;;;;4.65;75.02;99786.70;2153200;80;33582;-63
2021/01/06 09:51:03;;;;;;;30.08;17.67;;;;;;;4.60;74.89;99782.88;2207288;80;28628;-64
2021/01/06 09:54:06;;;;;;;28.35;17.32;;;;;;;4.51;74.48;99787.15;2200374;80;27795;-64
2021/01/06 09:57:16;;;;;;;27.67;18.10;;;;;;;4.43;74.38;99779.92;2197027;80;29334;-64
2021/01/06 10:00:36;;;;;;;34.70;19.65;;;;;;;4.34;74.42;99780.61;2155459;80;30742;-64
2021/01/06 10:03:40;;;;;;;33.48;20.62;;;;;;;4.34;74.93;99777.96;2186134;80;33177;-64
2021/01/06 10:07:00;;;;;;;29.12;19.23;;;;;;;4.40;75.27;99780.87;2135257;81;28637;-64
2021/01/06 10:10:14;;;;;;;32.03;20.52;;;;;;;4.47;75.41;99781.09;2170723;80;27620;-64
2021/01/06 10:13:53;;;;;;;34.67;19.70;;;;;;;4.55;75.42;99788.31;2160677;81;29708;-62
2021/01/06 10:17:13;;;;;;;30.23;17.95;;;;;;;4.50;75.00;99781.44;2049017;85;32171;-63
2021/01/06 10:20:40;;;;;;;31.47;17.90;;;;;;;4.45;74.76;99776.77;2247420;77;27933;-63
2021/01/06 10:23:51;;;;;;;28.30;16.57;;;;;;;4.31;74.86;99770.09;2169494;81;28180;-63
2021/01/06 10:27:04;;;;;;;29.87;17.85;;;;;;;4.23;74.87;99773.00;2144980;81;29987;-63
2021/01/06 10:30:12;;;;;;;30.43;18.65;;;;;;;4.25;74.98;99775.62;2150598;80;31906;-63
2021/01/06 10:33:19;;;;;;;33.15;18.87;;;;;;;4.24;74.86;99765.93;2211805;80;33961;-63
2021/01/06 10:36:42;;;;;;;33.05;18.55;;;;;;;4.22;74.82;99765.11;2161508;80;29451;-64
2021/01/06 10:39:52;;;;;;;36.98;19.60;;;;;;;4.23;74.98;99768.17;2161607;80;27695;-64
2021/01/06 10:42:54;;;;;;;34.80;19.82;;;;;;;4.24;74.77;99757.98;2153402;80;28835;-63
2021/01/06 10:45:57;;;;;;;41.88;23.40;;;;;;;4.31;75.28;99752.02;2178022;80;31537;-65
2021/01/06 10:49:01;;;;;;;71.47;48.10;;;;;;;4.40;75.22;99753.02;2126163;80;33086;-62
2021/01/06 10:52:15;;;;;;;39.05;21.87;;;;;;;4.50;75.39;99750.94;2150364;80;28409;-64
2021/01/06 10:59:04;;;;;;;35.75;19.40;;;;;;;4.48;74.57;99752.33;2121330;83;29403;-62
2021/01/06 11:02:27;;;;;;;39.58;22.00;;;;;;;4.49;74.89;99754.06;2132372;82;32115;-65
2021/01/06 11:05:57;;;;;;;38.93;23.00;;;;;;;4.64;75.16;99746.50;2247559;77;27706;-63
2021/01/06 11:09:32;;;;;;;34.03;20.08;;;;;;;4.62;74.55;99747.00;2097148;83;27604;-62
2021/01/06 11:16:45;;;;;;;43.55;23.62;;;;;;;4.77;75.22;99735.86;2073619;84;30932;-65
2021/01/06 11:20:25;;;;;;;32.13;18.87;;;;;;;4.92;75.03;99734.91;2247264;78;27675;-63
2021/01/06 11:23:35;;;;;;;35.63;21.17;;;;;;;4.86;74.44;99738.66;2166145;79;27709;-68
2021/01/06 11:26:48;;;;;;;46.98;26.17;;;;;;;4.89;74.61;99735.02;2157024;81;28668;-65
2021/01/06 11:29:58;;;;;;;80.85;36.83;;;;;;;4.89;74.50;99731.92;2173738;79;31260;-66
2021/01/06 11:33:21;;;;;;;78.12;36.53;;;;;;;4.94;74.74;99726.00;2163680;80;32801;-65
2021/01/06 11:36:51;;;;;;;68.70;40.90;;;;;;;5.00;74.84;99731.06;2163471;80;28758;-64
2021/01/06 11:39:54;;;;;;;41.50;23.55;;;;;;;5.05;74.68;99734.02;2188674;80;28181;-63
2021/01/06 11:43:37;;;;;;;53.85;25.12;;;;;;;5.04;74.47;99730.52;2189405;80;28921;-63
2021/01/06 11:47:03;;;;;;;57.98;27.35;;;;;;;5.07;74.59;99722.41;2024404;85;30949;-63
2021/01/06 11:50:31;;;;;;;40.67;21.97;;;;;;;5.11;74.51;99716.55;2070276;84;33973;-62
2021/01/06 11:53:37;;;;;;;38.33;24.05;;;;;;;5.13;74.29;99717.37;2063160;84;28871;-64
2021/01/06 11:56:47;;;;;;;68.17;32.75;;;;;;;5.15;74.27;99711.52;2100423;84;28149;-63
2021/01/06 12:00:43;;;;;;;54.23;26.50;;;;;;;5.21;74.33;99709.97;2241758;78;27763;-61
2021/01/06 12:04:06;;;;;;;45.92;23.70;;;;;;;5.21;74.37;99709.12;2173463;79;27703;-63
2021/01/06 12:07:37;;;;;;;41.77;23.32;;;;;;;5.22;74.29;99702.85;2175503;79;28678;-63
2021/01/06 12:11:20;;;;;;;40.98;23.00;;;;;;;5.24;74.30;99699.69;2132804;81;31151;-63
2021/01/06 12:15:02;;;;;;;43.98;26.45;;;;;;;5.24;74.38;99704.99;2152098;81;33988;-64
2021/01/06 12:18:08;;;;;;;35.65;21.77;;;;;;;5.21;73.85;99699.34;2175783;81;28185;-66
2021/01/06 12:21:37;;;;;;;36.28;19.70;;;;;;;5.17;73.60;99696.39;2174450;80;28666;-64
2021/01/06 12:24:45;;;;;;;36.98;20.77;;;;;;;5.10;73.15;99698.41;2145614;81;28892;-62
2021/01/06 12:28:07;;;;;;;33.90;21.07;;;;;;;5.08;73.70;99696.27;2153318;81;31131;-68
2021/01/06 12:31:28;;;;;;;39.08;23.27;;;;;;;5.15;73.95;99687.17;2179652;81;32382;-65
2021/01/06 12:34:41;;;;;;;40.20;26.95;;;;;;;5.23;74.08;99691.31;2169920;81;28636;-62
2021/01/06 12:37:57;;;;;;;42.08;25.55;;;;;;;5.29;73.85;99685.78;2137641;83;27734;-62
2021/01/06 12:41:21;;;;;;;46.60;28.25;;;;;;;5.34;73.74;99682.50;2072231;84;30243;-62
2021/01/06 12:44:33;;;;;;;43.20;30.07;;;;;;;5.35;73.72;99685.56;2070826;84;27792;-61
2021/01/06 12:47:52;;;;;;;49.13;34.77;;;;;;;5.44;73.82;99681.69;2216756;78;31559;-62
2021/01/06 12:51:24;;;;;;;50.23;30.45;;;;;;;5.54;73.78;99682.20;2189635;81;27735;-62
2021/01/06 12:54:37;;;;;;;51.40;27.52;;;;;;;5.60;73.49;99685.48;2194010;79;29785;-59
2021/01/06 12:57:55;;;;;;;48.92;26.20;;;;;;;5.60;73.32;99680.61;2192962;79;32128;-61
2021/01/06 13:01:08;;;;;;;53.15;30.77;;;;;;;5.53;73.33;99675.16;2194161;79;33117;-61
2021/01/06 13:04:13;;;;;;;39.50;26.02;;;;;;;5.49;73.09;99678.38;2157522;81;28604;-59
2021/01/06 13:07:29;;;;;;;49.50;30.00;;;;;;;5.21;72.89;99663.98;2158220;81;27686;-60
2021/01/06 13:10:42;;;;;;;48.42;28.05;;;;;;;5.21;72.89;99663.98;2157172;81;29647;-60
2021/01/06 13:13:45;;;;;;;53.78;31.02;;;;;;;5.24;73.01;99679.77;2202563;79;32018;-62
2021/01/06 13:17:04;;;;;;;49.48;27.80;;;;;;;5.16;73.22;99675.63;2156149;79;33654;-62
2021/01/06 13:20:34;;;;;;;56.48;35.10;;;;;;;5.11;73.09;99684.70;2155000;79;28594;-61
2021/01/06 13:23:43;;;;;;;62.03;37.17;;;;;;;5.06;73.20;99681.33;2181184;79;27767;-61
2021/01/06 13:27:03;;;;;;;54.20;35.35;;;;;;;5.02;73.14;99681.92;2165404;80;28918;-60
2021/01/06 13:30:42;;;;;;;50.33;30.55;;;;;;;4.99;73.23;99684.20;2184997;79;30899;-60
2021/01/06 13:34:28;;;;;;;55.85;30.52;;;;;;;4.99;73.16;99682.88;2198659;78;33867;-61
2021/01/06 13:37:37;;;;;;;46.63;26.40;;;;;;;4.99;73.20;99682.88;2159997;79;28942;-61
2021/01/06 13:40:44;;;;;;;68.50;37.73;;;;;;;4.96;73.14;99688.32;2210734;79;27783;-61
2021/01/06 13:44:21;;;;;;;69.12;36.68;;;;;;;4.91;73.03;99690.71;2209281;78;30586;-61
2021/01/06 13:47:27;;;;;;;76.75;41.37;;;;;;;4.88;73.11;99693.50;2157270;80;32575;-61
2021/01/06 13:50:56;;;;;;;65.67;38.80;;;;;;;4.81;73.08;99694.16;2182772;79;34033;-65
2021/01/06 13:54:19;;;;;;;56.53;33.18;;;;;;;4.74;73.00;99696.64;2193245;80;28840;-70
2021/01/06 13:57:55;;;;;;;57.85;30.40;;;;;;;4.66;73.12;99703.06;2156233;79;27661;-64
2021/01/06 14:01:21;;;;;;;48.55;27.98;;;;;;;4.62;73.18;99700.14;2211417;80;29778;-65
2021/01/06 14:04:24;;;;;;;;;;;;;;;4.59;73.50;99696.70;2194066;81;32525;-63
2021/01/06 14:07:33;;;;;;;44.45;25.45;;;;;;;4.60;73.71;99703.30;2155611;80;33175;-63
2021/01/06 14:11:03;;;;;;;45.12;26.52;;;;;;;4.60;73.93;99695.34;2147062;80;28931;-63
2021/01/06 14:14:39;;;;;;;52.20;28.42;;;;;;;4.65;74.00;99700.48;2121824;83;27822;-62
2021/01/06 14:18:19;;;;;;;42.43;26.07;;;;;;;4.67;74.06;99698.64;2100874;83;29577;-64
2021/01/06 14:21:50;;;;;;;46.35;27.60;;;;;;;4.70;74.08;99697.22;2124487;83;31135;-62
2021/01/06 14:24:53;;;;;;;43.87;26.70;;;;;;;4.66;73.63;99693.78;2117859;81;33117;-62
2021/01/06 14:28:07;;;;;;;45.03;27.27;;;;;;;4.60;73.80;99703.30;2069480;83;28413;-66
2021/01/06 14:31:29;;;;;;;48.03;27.57;;;;;;;4.63;73.81;99700.98;2311123;76;27703;-62
2021/01/06 14:34:35;;;;;;;43.52;26.05;;;;;;;4.55;73.98;99702.58;2218962;80;27620;-66
2021/01/06 14:38:26;;;;;;;50.80;28.98;;;;;;;4.52;73.99;99713.29;2215060;78;30138;-61
2021/01/06 14:41:40;;;;;;;50.63;30.68;;;;;;;4.48;74.03;99711.66;2251910;79;31719;-62
2021/01/06 14:45:21;;;;;;;55.63;31.60;;;;;;;4.44;74.16;99711.37;2168629;82;33974;-60
2021/01/06 14:48:34;;;;;;;47.30;26.82;;;;;;;4.40;74.23;99713.24;2182573;80;28593;-65
2021/01/06 14:52:21;;;;;;;45.08;24.15;;;;;;;4.38;74.21;99713.78;2170627;82;27695;-66
2021/01/06 14:55:29;;;;;;;36.70;22.07;;;;;;;4.38;74.27;99711.13;2178940;80;28822;-68
2021/01/06 14:58:46;;;;;;;37.93;22.77;;;;;;;4.35;74.24;99706.77;2210056;80;31243;-61
2021/01/06 15:02:18;;;;;;;38.20;23.18;;;;;;;4.34;74.35;99703.71;2206015;77;33505;-63
2021/01/06 15:05:45;;;;;;;56.13;32.42;;;;;;;4.32;74.35;99699.39;2305505;77;29880;-61
2021/01/06 15:09:41;;;;;;;56.77;33.08;;;;;;;4.28;74.19;99702.61;2148051;80;27736;-62
2021/01/06 15:13:05;;;;;;;68.37;38.55;;;;;;;4.23;74.30;99707.19;2217440;78;28616;-62
2021/01/06 15:16:20;;;;;;;68.52;38.15;;;;;;;4.18;74.39;99698.52;2221117;79;31150;-63
2021/01/06 15:19:32;;;;;;;62.20;35.63;;;;;;;4.13;74.48;99703.97;2158310;79;33130;-65
2021/01/06 15:22:36;;;;;;;63.60;34.88;;;;;;;4.05;74.30;99700.72;2193601;78;28414;-61
2021/01/06 15:25:49;;;;;;;60.83;34.03;;;;;;;3.97;74.32;99694.78;2218552;78;27681;-61
2021/01/06 15:28:54;;;;;;;65.62;38.20;;;;;;;3.91;74.42;99695.86;2164688;81;29796;-61
2021/01/06 15:32:35;;;;;;;68.28;35.98;;;;;;;3.89;74.48;99695.03;2203405;80;31071;-62
2021/01/06 15:35:41;;;;;;;59.08;32.80;;;;;;;3.86;74.43;99698.66;2195713;78;33639;-59